createdAt,value
2018-04-14T00:00:56.167Z,100.00
2018-04-14T00:02:02.220Z,100.00
2018-04-14T00:03:08.695Z,100.00
2018-04-14T00:04:15.006Z,100.00
2018-04-14T00:05:20.981Z,100.00
2018-04-14T00:06:27.223Z,100.00
2018-04-14T00:07:33.552Z,100.00
2018-04-14T00:08:39.864Z,100.00
2018-04-14T00:09:46.151Z,100.00
2018-04-14T00:10:52.490Z,100.00
2018-04-14T00:11:58.772Z,100.00
2018-04-14T00:13:05.074Z,100.00
2018-04-14T00:14:11.919Z,100.00
2018-04-14T00:15:18.258Z,100.00
2018-04-14T00:16:24.543Z,100.00
2018-04-14T00:17:30.866Z,100.00
2018-04-14T00:18:43.125Z,100.00
2018-04-14T00:19:49.307Z,100.00
2018-04-14T00:20:55.324Z,100.00
2018-04-14T00:22:06.672Z,100.00
2018-04-14T00:23:16.938Z,100.00
2018-04-14T00:24:25.236Z,100.00
2018-04-14T00:25:31.812Z,100.00
2018-04-14T00:26:38.142Z,100.00
2018-04-14T00:27:44.451Z,100.00
2018-04-14T00:28:50.847Z,100.00
2018-04-14T00:29:57.976Z,100.00
2018-04-14T00:31:05.396Z,100.00
2018-04-14T00:32:11.633Z,100.00
2018-04-14T00:33:17.937Z,100.00
2018-04-14T00:34:24.247Z,100.00
2018-04-14T00:35:31.436Z,100.00
2018-04-14T00:36:37.814Z,100.00
2018-04-14T00:37:44.129Z,100.00
2018-04-14T00:38:52.107Z,100.00
2018-04-14T00:39:58.416Z,100.00
2018-04-14T00:41:04.688Z,100.00
2018-04-14T00:42:11.013Z,100.00
2018-04-14T00:43:17.316Z,100.00
2018-04-14T00:44:23.616Z,100.00
2018-04-14T00:45:33.781Z,100.00
2018-04-14T00:46:40.050Z,100.00
2018-04-14T00:47:46.168Z,100.00
2018-04-14T00:48:52.693Z,100.00
2018-04-14T00:49:59.161Z,100.00
2018-04-14T00:51:06.958Z,100.00
2018-04-14T00:52:13.245Z,100.00
2018-04-14T00:53:30.450Z,100.00
2018-04-14T00:54:36.263Z,100.00
2018-04-14T00:55:42.472Z,100.00
2018-04-14T00:56:48.746Z,100.00
2018-04-14T00:57:55.660Z,100.00
2018-04-14T00:59:01.937Z,100.00
2018-04-14T01:00:08.258Z,100.00
2018-04-14T01:01:14.211Z,100.00
2018-04-14T01:02:21.198Z,100.00
2018-04-14T01:03:27.507Z,100.00
2018-04-14T01:04:34.502Z,100.00
2018-04-14T01:05:41.996Z,100.00
2018-04-14T01:06:49.160Z,100.00
2018-04-14T01:07:55.437Z,100.00
2018-04-14T01:09:01.721Z,100.00
2018-04-14T01:10:07.724Z,100.00
2018-04-14T01:11:13.722Z,100.00
2018-04-14T01:12:20.015Z,100.00
2018-04-14T01:13:26.271Z,100.00
2018-04-14T01:14:32.558Z,100.00
2018-04-14T01:15:38.887Z,100.00
2018-04-14T01:16:45.163Z,100.00
2018-04-14T01:17:51.319Z,100.00
2018-04-14T01:18:57.935Z,100.00
2018-04-14T01:20:04.291Z,100.00
2018-04-14T01:21:10.554Z,100.00
2018-04-14T01:22:17.531Z,100.00
2018-04-14T01:23:29.942Z,100.00
2018-04-14T01:24:35.919Z,100.00
2018-04-14T01:25:42.247Z,100.00
2018-04-14T01:26:48.459Z,100.00
2018-04-14T01:27:54.744Z,100.00
2018-04-14T01:29:01.066Z,100.00
2018-04-14T01:30:07.366Z,100.00
2018-04-14T01:31:13.684Z,100.00
2018-04-14T01:32:19.991Z,100.00
2018-04-14T01:33:26.300Z,100.00
2018-04-14T01:34:32.638Z,100.00
2018-04-14T01:35:38.927Z,100.00
2018-04-14T01:36:45.237Z,100.00
2018-04-14T01:37:53.017Z,100.00
2018-04-14T01:38:59.345Z,100.00
2018-04-14T01:40:05.771Z,100.00
2018-04-14T01:41:12.522Z,100.00
2018-04-14T01:42:18.586Z,100.00
2018-04-14T01:43:25.564Z,100.00
2018-04-14T01:44:31.533Z,100.00
2018-04-14T01:45:37.876Z,100.00
2018-04-14T01:46:44.228Z,100.00
2018-04-14T01:47:50.537Z,100.00
2018-04-14T01:48:56.843Z,100.00
2018-04-14T01:50:02.828Z,100.00
2018-04-14T01:51:09.122Z,100.00
2018-04-14T01:52:15.471Z,100.00
2018-04-14T01:53:22.050Z,100.00
2018-04-14T01:54:28.387Z,100.00
2018-04-14T01:55:34.661Z,100.00
2018-04-14T01:56:40.922Z,100.00
2018-04-14T01:57:52.227Z,100.00
2018-04-14T01:58:58.534Z,100.00
2018-04-14T02:00:03.954Z,100.00
2018-04-14T02:01:10.341Z,100.00
2018-04-14T02:02:16.894Z,100.00
2018-04-14T02:03:23.627Z,100.00
2018-04-14T02:04:29.994Z,100.00
2018-04-14T02:05:36.306Z,100.00
2018-04-14T02:06:42.283Z,100.00
2018-04-14T02:07:48.620Z,100.00
2018-04-14T02:08:54.613Z,100.00
2018-04-14T02:10:00.836Z,100.00
2018-04-14T02:11:06.654Z,100.00
2018-04-14T02:12:12.969Z,100.00
2018-04-14T02:13:20.934Z,100.00
2018-04-14T02:14:27.121Z,100.00
2018-04-14T02:15:33.442Z,100.00
2018-04-14T02:16:39.750Z,100.00
2018-04-14T02:17:46.039Z,100.00
2018-04-14T02:18:52.375Z,100.00
2018-04-14T02:19:59.172Z,100.00
2018-04-14T02:21:05.382Z,100.00
2018-04-14T02:22:11.365Z,100.00
2018-04-14T02:23:17.577Z,100.00
2018-04-14T02:24:23.915Z,100.00
2018-04-14T02:25:30.242Z,100.00
2018-04-14T02:26:36.532Z,100.00
2018-04-14T02:27:42.848Z,100.00
2018-04-14T02:28:50.335Z,100.00
2018-04-14T02:29:58.395Z,100.00
2018-04-14T02:31:04.671Z,100.00
2018-04-14T02:32:10.942Z,100.00
2018-04-14T02:33:17.159Z,100.00
2018-04-14T02:34:23.402Z,100.00
2018-04-14T02:35:29.695Z,100.00
2018-04-14T02:36:36.010Z,100.00
2018-04-14T02:37:42.319Z,100.00
2018-04-14T02:38:48.603Z,100.00
2018-04-14T02:39:54.886Z,100.00
2018-04-14T02:41:01.155Z,100.00
2018-04-14T02:42:07.373Z,100.00
2018-04-14T02:43:13.414Z,100.00
2018-04-14T02:44:19.855Z,100.00
2018-04-14T02:45:26.907Z,100.00
2018-04-14T02:46:32.945Z,100.00
2018-04-14T02:47:39.224Z,100.00
2018-04-14T02:48:45.563Z,100.00
2018-04-14T02:49:51.836Z,100.00
2018-04-14T02:50:58.047Z,100.00
2018-04-14T02:52:04.420Z,100.00
2018-04-14T02:53:10.927Z,100.00
2018-04-14T02:54:17.202Z,100.00
2018-04-14T02:55:23.529Z,100.00
2018-04-14T02:56:30.286Z,100.00
2018-04-14T02:57:36.519Z,100.00
2018-04-14T02:58:42.747Z,100.00
2018-04-14T02:59:49.622Z,100.00
2018-04-14T03:00:55.512Z,100.00
2018-04-14T03:02:01.805Z,100.00
2018-04-14T03:03:08.149Z,100.00
2018-04-14T03:04:14.338Z,100.00
2018-04-14T03:05:20.621Z,100.00
2018-04-14T03:06:26.943Z,100.00
2018-04-14T03:07:33.920Z,100.00
2018-04-14T03:08:42.700Z,100.00
2018-04-14T03:09:48.940Z,100.00
2018-04-14T03:10:55.143Z,100.00
2018-04-14T03:12:01.488Z,100.00
2018-04-14T03:13:07.952Z,100.00
2018-04-14T03:14:14.195Z,100.00
2018-04-14T03:15:20.502Z,100.00
2018-04-14T03:16:26.826Z,100.00
2018-04-14T03:17:33.150Z,100.00
2018-04-14T03:18:39.580Z,100.00
2018-04-14T03:19:45.870Z,100.00
2018-04-14T03:20:52.446Z,100.00
2018-04-14T03:21:58.673Z,100.00
2018-04-14T03:23:05.018Z,100.00
2018-04-14T03:24:11.299Z,100.00
2018-04-14T03:25:17.379Z,100.00
2018-04-14T03:26:23.602Z,100.00
2018-04-14T03:27:29.851Z,100.00
2018-04-14T03:28:37.311Z,100.00
2018-04-14T03:29:45.996Z,100.00
2018-04-14T03:30:52.335Z,100.00
2018-04-14T03:31:58.659Z,100.00
2018-04-14T03:33:04.989Z,100.00
2018-04-14T03:34:11.383Z,100.00
2018-04-14T03:35:17.689Z,100.00
2018-04-14T03:36:26.137Z,100.00
2018-04-14T03:37:31.722Z,100.00
2018-04-14T03:38:37.989Z,100.00
2018-04-14T03:39:44.849Z,100.00
2018-04-14T03:40:51.106Z,100.00
2018-04-14T03:41:57.877Z,100.00
2018-04-14T03:43:04.276Z,100.00
2018-04-14T03:44:10.573Z,100.00
2018-04-14T03:45:16.850Z,100.00
2018-04-14T03:46:23.162Z,100.00
2018-04-14T03:47:29.396Z,100.00
2018-04-14T03:48:35.687Z,100.00
2018-04-14T03:49:45.747Z,100.00
2018-04-14T03:50:54.726Z,100.00
2018-04-14T03:52:01.757Z,100.00
2018-04-14T03:53:08.002Z,100.00
2018-04-14T03:54:14.415Z,100.00
2018-04-14T03:55:20.730Z,100.00
2018-04-14T03:56:27.022Z,100.00
2018-04-14T03:57:33.352Z,100.00
2018-04-14T03:58:39.990Z,100.00
2018-04-14T03:59:46.238Z,100.00
2018-04-14T04:00:52.488Z,100.00
2018-04-14T04:01:58.503Z,100.00
2018-04-14T04:03:04.993Z,100.00
2018-04-14T04:04:11.238Z,100.00
2018-04-14T04:05:17.702Z,100.00
2018-04-14T04:06:24.046Z,100.00
2018-04-14T04:07:31.612Z,100.00
2018-04-14T04:08:39.475Z,100.00
2018-04-14T04:09:45.756Z,100.00
2018-04-14T04:10:58.353Z,100.00
2018-04-14T04:12:05.417Z,100.00
2018-04-14T04:13:11.758Z,100.00
2018-04-14T04:14:17.767Z,100.00
2018-04-14T04:15:23.707Z,100.00
2018-04-14T04:16:29.954Z,100.00
2018-04-14T04:17:36.289Z,100.00
2018-04-14T04:18:53.908Z,100.00
2018-04-14T04:20:11.017Z,100.00
2018-04-14T04:23:08.385Z,100.00
2018-04-14T04:24:26.434Z,100.00
2018-04-14T04:25:40.447Z,100.00
2018-04-14T04:26:46.209Z,100.00
2018-04-14T04:27:51.926Z,100.00
2018-04-14T04:28:57.575Z,100.00
2018-04-14T04:30:03.316Z,100.00
2018-04-14T04:31:09.449Z,100.00
2018-04-14T04:32:15.641Z,100.00
2018-04-14T04:33:21.289Z,100.00
2018-04-14T04:34:26.981Z,100.00
2018-04-14T04:35:32.717Z,100.00
2018-04-14T04:36:39.291Z,100.00
2018-04-14T04:37:45.103Z,100.00
2018-04-14T04:38:50.811Z,100.00
2018-04-14T04:39:56.145Z,100.00
2018-04-14T04:41:01.951Z,100.00
2018-04-14T04:42:08.360Z,100.00
2018-04-14T04:43:14.619Z,100.00
2018-04-14T04:44:21.058Z,100.00
2018-04-14T04:45:27.191Z,100.00
2018-04-14T04:46:32.847Z,100.00
2018-04-14T04:47:41.536Z,100.00
2018-04-14T04:48:47.305Z,100.00
2018-04-14T04:49:55.430Z,100.00
2018-04-14T04:51:01.223Z,100.00
2018-04-14T04:52:07.528Z,100.00
2018-04-14T04:53:13.187Z,100.00
2018-04-14T04:54:21.085Z,100.00
2018-04-14T04:55:28.619Z,100.00
2018-04-14T04:56:34.426Z,100.00
2018-04-14T04:57:40.248Z,100.00
2018-04-14T04:58:45.970Z,100.00
2018-04-14T04:59:51.667Z,100.00
2018-04-14T05:00:57.375Z,100.00
2018-04-14T05:02:02.807Z,100.00
2018-04-14T05:03:08.525Z,100.00
2018-04-14T05:04:15.576Z,100.00
2018-04-14T05:05:21.333Z,100.00
2018-04-14T05:06:27.103Z,100.00
2018-04-14T05:07:32.765Z,100.00
2018-04-14T05:08:38.472Z,100.00
2018-04-14T05:09:44.334Z,100.00
2018-04-14T05:10:50.131Z,100.00
2018-04-14T05:11:56.109Z,100.00
2018-04-14T05:13:02.201Z,100.00
2018-04-14T05:14:07.979Z,100.00
2018-04-14T05:15:13.713Z,100.00
2018-04-14T05:16:19.532Z,100.00
2018-04-14T05:17:25.198Z,100.00
2018-04-14T05:18:31.002Z,100.00
2018-04-14T05:19:36.994Z,100.00
2018-04-14T05:20:42.663Z,100.00
2018-04-14T05:21:48.372Z,100.00
2018-04-14T05:22:54.084Z,100.00
2018-04-14T05:23:59.817Z,100.00
2018-04-14T05:25:05.442Z,100.00
2018-04-14T05:26:11.161Z,100.00
2018-04-14T05:27:16.878Z,100.00
2018-04-14T05:28:22.663Z,100.00
2018-04-14T05:29:28.423Z,100.00
2018-04-14T05:30:34.154Z,100.00
2018-04-14T05:31:39.859Z,100.00
2018-04-14T05:32:45.579Z,100.00
2018-04-14T05:33:51.284Z,100.00
2018-04-14T05:34:58.841Z,100.00
2018-04-14T05:36:05.154Z,100.00
2018-04-14T05:37:10.547Z,100.00
2018-04-14T05:38:16.210Z,100.00
2018-04-14T05:39:21.870Z,100.00
2018-04-14T05:40:27.659Z,100.00
2018-04-14T05:41:34.176Z,100.00
2018-04-14T05:42:40.169Z,100.00
2018-04-14T05:43:46.447Z,100.00
2018-04-14T05:44:52.132Z,100.00
2018-04-14T05:45:58.505Z,100.00
2018-04-14T05:47:03.895Z,100.00
2018-04-14T05:48:10.711Z,100.00
2018-04-14T05:49:16.822Z,100.00
2018-04-14T05:50:23.364Z,100.00
2018-04-14T05:51:33.602Z,100.00
2018-04-14T05:52:39.446Z,100.00
2018-04-14T05:53:46.555Z,100.00
2018-04-14T05:54:52.191Z,100.00
2018-04-14T05:56:00.454Z,100.00
2018-04-14T05:57:06.074Z,100.00
2018-04-14T05:58:11.830Z,100.00
2018-04-14T05:59:18.489Z,100.00
2018-04-14T06:00:24.618Z,100.00
2018-04-14T06:01:31.082Z,100.00
2018-04-14T06:02:37.882Z,100.00
2018-04-14T06:03:44.653Z,100.00
2018-04-14T06:04:50.867Z,100.00
2018-04-14T06:05:58.254Z,100.00
2018-04-14T06:07:07.174Z,98.97
2018-04-14T06:08:13.433Z,99.67
2018-04-14T06:09:20.666Z,100.00
2018-04-14T06:10:27.462Z,99.98
2018-04-14T06:11:34.534Z,99.86
2018-04-14T06:12:41.242Z,98.64
2018-04-14T06:13:48.344Z,98.97
2018-04-14T06:14:54.671Z,99.21
2018-04-14T06:16:01.458Z,98.98
2018-04-14T06:17:08.426Z,97.98
2018-04-14T06:18:14.798Z,98.79
2018-04-14T06:19:20.900Z,98.35
2018-04-14T06:20:27.098Z,99.60
2018-04-14T06:21:33.952Z,98.94
2018-04-14T06:22:41.108Z,98.25
2018-04-14T06:23:48.721Z,98.55
2018-04-14T06:24:55.173Z,98.02
2018-04-14T06:26:01.247Z,97.56
2018-04-14T06:27:07.503Z,97.75
2018-04-14T06:28:13.880Z,97.82
2018-04-14T06:29:20.216Z,97.50
2018-04-14T06:30:26.509Z,95.66
2018-04-14T06:31:32.628Z,97.11
2018-04-14T06:32:39.479Z,97.76
2018-04-14T06:33:45.834Z,96.72
2018-04-14T06:34:51.758Z,97.61
2018-04-14T06:35:57.695Z,96.49
2018-04-14T06:37:04.496Z,96.56
2018-04-14T06:38:12.311Z,96.44
2018-04-14T06:39:19.276Z,97.33
2018-04-14T06:40:30.774Z,96.28
2018-04-14T06:41:37.152Z,95.74
2018-04-14T06:42:42.980Z,96.89
2018-04-14T06:43:48.799Z,96.54
2018-04-14T06:44:54.475Z,96.69
2018-04-14T06:46:00.141Z,96.80
2018-04-14T06:47:06.828Z,95.89
2018-04-14T06:48:13.270Z,95.96
2018-04-14T06:49:18.983Z,95.94
2018-04-14T06:50:24.702Z,95.48
2018-04-14T06:51:30.384Z,95.11
2018-04-14T06:52:36.054Z,95.29
2018-04-14T06:53:41.755Z,95.32
2018-04-14T06:54:47.482Z,95.26
2018-04-14T06:55:53.191Z,95.74
2018-04-14T06:56:59.077Z,95.04
2018-04-14T06:58:04.752Z,94.31
2018-04-14T06:59:18.329Z,95.12
2018-04-14T07:00:23.978Z,95.41
2018-04-14T07:01:29.616Z,94.03
2018-04-14T07:02:35.926Z,94.37
2018-04-14T07:03:42.555Z,95.49
2018-04-14T07:04:48.281Z,95.25
2018-04-14T07:05:53.792Z,95.40
2018-04-14T07:06:59.470Z,94.92
2018-04-14T07:08:05.041Z,94.15
2018-04-14T07:09:10.752Z,94.08
2018-04-14T07:10:16.239Z,94.49
2018-04-14T07:11:21.923Z,95.23
2018-04-14T07:12:27.615Z,94.53
2018-04-14T07:13:33.286Z,94.20
2018-04-14T07:14:41.403Z,93.95
2018-04-14T07:15:47.004Z,93.96
2018-04-14T07:16:52.701Z,94.29
2018-04-14T07:17:58.407Z,92.83
2018-04-14T07:19:04.063Z,93.13
2018-04-14T07:20:14.238Z,93.77
2018-04-14T07:21:21.334Z,93.76
2018-04-14T07:22:26.984Z,94.15
2018-04-14T07:23:32.691Z,94.13
2018-04-14T07:24:38.543Z,94.84
2018-04-14T07:25:44.239Z,94.02
2018-04-14T07:26:49.903Z,94.42
2018-04-14T07:27:55.818Z,93.83
2018-04-14T07:29:02.177Z,94.91
2018-04-14T07:30:08.689Z,93.54
2018-04-14T07:31:15.771Z,93.92
2018-04-14T07:32:21.493Z,93.98
2018-04-14T07:33:27.353Z,94.12
2018-04-14T07:34:32.815Z,92.99
2018-04-14T07:35:38.578Z,92.07
2018-04-14T07:36:44.241Z,91.56
2018-04-14T07:37:51.330Z,91.40
2018-04-14T07:38:56.970Z,91.23
2018-04-14T07:40:02.429Z,91.19
2018-04-14T07:41:11.909Z,91.88
2018-04-14T07:42:20.350Z,91.34
2018-04-14T07:43:25.995Z,92.44
2018-04-14T07:44:31.716Z,92.82
2018-04-14T07:45:37.407Z,92.51
2018-04-14T07:46:43.077Z,92.58
2018-04-14T07:47:48.806Z,92.30
2018-04-14T07:48:54.475Z,92.41
2018-04-14T07:50:01.111Z,89.93
2018-04-14T07:51:06.961Z,90.04
2018-04-14T07:52:12.690Z,90.12
2018-04-14T07:53:19.031Z,88.61
2018-04-14T07:54:24.726Z,88.50
2018-04-14T07:55:30.466Z,90.39
2018-04-14T07:56:36.135Z,90.20
2018-04-14T07:57:42.332Z,89.74
2018-04-14T07:58:48.168Z,88.80
2018-04-14T07:59:54.038Z,89.60
2018-04-14T08:11:54.935Z,86.46
2018-04-14T08:13:05.798Z,87.08
2018-04-14T08:14:16.445Z,86.34
2018-04-14T08:15:27.110Z,86.75
2018-04-14T08:25:15.036Z,86.41
2018-04-14T08:26:20.703Z,84.82
2018-04-14T08:27:28.871Z,86.76
2018-04-14T08:28:34.930Z,86.08
2018-04-14T08:29:40.975Z,84.97
2018-04-14T08:37:16.014Z,82.50
2018-04-14T08:38:29.864Z,82.72
2018-04-14T08:39:36.097Z,83.33
2018-04-14T08:40:43.402Z,83.01
2018-04-14T08:41:49.179Z,84.49
2018-04-14T08:42:55.628Z,83.63
2018-04-14T08:44:02.613Z,82.61
2018-04-14T08:45:08.394Z,78.07
2018-04-14T08:46:14.121Z,75.86
2018-04-14T08:48:06.105Z,78.23
2018-04-14T08:49:13.750Z,78.04
2018-04-14T08:50:19.452Z,76.18
2018-04-14T08:51:30.260Z,79.67
2018-04-14T08:52:39.500Z,77.67
2018-04-14T08:53:48.394Z,78.54
2018-04-14T08:54:54.046Z,76.10
2018-04-14T08:56:00.334Z,77.49
2018-04-14T08:57:05.940Z,77.93
2018-04-14T08:58:11.687Z,78.58
2018-04-14T08:59:17.362Z,75.40
2018-04-14T09:00:23.039Z,79.37
2018-04-14T09:01:33.467Z,77.85
2018-04-14T09:02:39.138Z,77.32
2018-04-14T09:03:47.515Z,75.21
2018-04-14T09:05:16.938Z,74.14
2018-04-14T09:06:23.547Z,76.80
2018-04-14T09:07:29.388Z,76.29
2018-04-14T09:08:35.099Z,73.82
2018-04-14T09:09:40.806Z,76.21
2018-04-14T09:10:49.388Z,77.30
2018-04-14T09:11:55.026Z,74.25
2018-04-14T09:13:00.978Z,75.93
2018-04-14T09:14:07.956Z,75.28
2018-04-14T09:15:15.803Z,76.19
2018-04-14T09:16:21.527Z,75.61
2018-04-14T09:17:27.740Z,74.35
2018-04-14T09:18:33.953Z,75.58
2018-04-14T09:19:40.283Z,75.12
2018-04-14T09:20:46.355Z,73.20
2018-04-14T09:21:52.557Z,72.97
2018-04-14T09:22:58.783Z,74.24
2018-04-14T09:24:05.108Z,74.28
2018-04-14T09:25:11.402Z,74.45
2018-04-14T09:26:17.675Z,74.10
2018-04-14T09:27:23.906Z,74.43
2018-04-14T09:28:35.854Z,75.59
2018-04-14T09:29:43.141Z,72.65
2018-04-14T09:30:50.511Z,75.37
2018-04-14T09:31:56.502Z,73.75
2018-04-14T09:33:02.815Z,73.25
2018-04-14T09:34:09.109Z,73.56
2018-04-14T09:35:15.411Z,73.61
2018-04-14T09:36:22.392Z,72.13
2018-04-14T09:37:28.710Z,71.07
2018-04-14T09:38:34.711Z,72.66
2018-04-14T09:39:40.999Z,73.27
2018-04-14T09:40:50.210Z,71.86
2018-04-14T09:41:56.301Z,72.20
2018-04-14T09:43:02.626Z,72.23
2018-04-14T09:44:08.832Z,72.73
2018-04-14T09:45:14.834Z,73.29
2018-04-14T09:46:23.959Z,73.27
2018-04-14T09:47:30.396Z,71.79
2018-04-14T09:48:36.891Z,71.73
2018-04-14T09:49:42.886Z,70.92
2018-04-14T09:50:49.195Z,69.45
2018-04-14T09:51:55.453Z,70.52
2018-04-14T09:53:01.800Z,69.46
2018-04-14T09:54:09.227Z,70.55
2018-04-14T09:55:15.454Z,70.67
2018-04-14T09:56:21.727Z,71.29
2018-04-14T09:57:28.716Z,71.19
2018-04-14T09:58:35.055Z,72.23
2018-04-14T09:59:41.413Z,71.64
2018-04-14T10:00:53.388Z,69.75
2018-04-14T10:02:02.206Z,68.07
2018-04-14T10:03:17.677Z,69.15
2018-04-14T10:04:23.703Z,69.55
2018-04-14T10:05:30.071Z,69.39
2018-04-14T10:06:36.362Z,68.73
2018-04-14T10:07:42.662Z,67.07
2018-04-14T10:08:48.983Z,67.23
2018-04-14T10:09:55.302Z,67.07
2018-04-14T10:11:01.535Z,68.37
2018-04-14T10:12:07.834Z,68.10
2018-04-14T10:13:14.106Z,67.69
2018-04-14T10:14:20.339Z,65.30
2018-04-14T10:15:26.534Z,67.43
2018-04-14T10:16:35.105Z,67.22
2018-04-14T10:17:41.782Z,66.92
2018-04-14T10:18:48.039Z,66.62
2018-04-14T10:19:56.032Z,67.56
2018-04-14T10:21:02.347Z,68.06
2018-04-14T10:22:09.430Z,66.12
2018-04-14T10:23:15.643Z,66.07
2018-04-14T10:24:21.846Z,65.51
2018-04-14T10:25:28.053Z,64.49
2018-04-14T10:26:34.006Z,65.44
2018-04-14T10:27:40.048Z,64.96
2018-04-14T10:28:46.387Z,65.59
2018-04-14T10:29:54.975Z,64.21
2018-04-14T10:31:06.251Z,66.16
2018-04-14T10:32:13.473Z,65.02
2018-04-14T10:33:19.392Z,64.24
2018-04-14T10:34:25.722Z,63.95
2018-04-14T10:35:32.048Z,62.88
2018-04-14T10:36:38.603Z,63.19
2018-04-14T10:37:44.950Z,64.27
2018-04-14T10:38:51.496Z,63.87
2018-04-14T10:39:57.792Z,61.46
2018-04-14T10:41:04.100Z,61.14
2018-04-14T10:42:10.458Z,62.18
2018-04-14T10:43:16.740Z,61.60
2018-04-14T10:44:23.057Z,62.44
2018-04-14T10:45:29.350Z,62.01
2018-04-14T10:46:35.689Z,62.91
2018-04-14T10:47:42.557Z,62.88
2018-04-14T10:48:49.767Z,62.17
2018-04-14T10:49:56.063Z,60.25
2018-04-14T10:51:06.825Z,60.69
2018-04-14T10:52:16.591Z,61.36
2018-04-14T10:53:22.959Z,60.89
2018-04-14T10:54:29.275Z,61.80
2018-04-14T10:55:35.852Z,61.34
2018-04-14T10:56:41.640Z,61.48
2018-04-14T10:57:47.935Z,60.86
2018-04-14T10:58:54.217Z,61.89
2018-04-14T11:00:00.531Z,61.97
2018-04-14T11:01:06.900Z,62.65
2018-04-14T11:02:12.840Z,62.19
2018-04-14T11:03:21.345Z,61.40
2018-04-14T11:04:27.851Z,61.09
2018-04-14T11:05:34.138Z,60.08
2018-04-14T11:06:40.444Z,58.98
2018-04-14T11:07:46.785Z,59.59
2018-04-14T11:08:53.078Z,59.79
2018-04-14T11:09:59.576Z,59.77
2018-04-14T11:11:05.925Z,59.46
2018-04-14T11:12:15.741Z,60.14
2018-04-14T11:13:27.098Z,59.94
2018-04-14T11:14:33.361Z,58.84
2018-04-14T11:15:39.631Z,58.48
2018-04-14T11:16:45.929Z,60.06
2018-04-14T11:17:53.344Z,60.11
2018-04-14T11:18:59.802Z,58.65
2018-04-14T11:20:06.373Z,58.93
2018-04-14T11:21:12.552Z,59.24
2018-04-14T11:22:18.834Z,58.09
2018-04-14T11:23:25.193Z,58.52
2018-04-14T11:24:31.471Z,59.21
2018-04-14T11:25:37.787Z,58.66
2018-04-14T11:26:44.066Z,59.49
2018-04-14T11:27:50.404Z,58.84
2018-04-14T11:28:56.707Z,57.20
2018-04-14T11:30:02.827Z,57.58
2018-04-14T11:31:09.155Z,58.66
2018-04-14T11:32:15.421Z,59.17
2018-04-14T11:33:21.683Z,57.87
2018-04-14T11:34:29.774Z,56.36
2018-04-14T11:35:38.030Z,55.43
2018-04-14T11:36:44.452Z,55.27
2018-04-14T11:37:50.695Z,55.55
2018-04-14T11:38:57.055Z,55.61
2018-04-14T11:40:03.311Z,56.98
2018-04-14T11:41:09.374Z,55.98
2018-04-14T11:42:15.626Z,56.08
2018-04-14T11:43:22.004Z,56.08
2018-04-14T11:44:28.564Z,54.41
2018-04-14T11:45:35.150Z,54.91
2018-04-14T11:46:41.387Z,54.14
2018-04-14T11:47:47.743Z,54.87
2018-04-14T11:48:54.040Z,55.45
2018-04-14T11:50:02.352Z,54.40
2018-04-14T11:51:10.527Z,56.02
2018-04-14T11:52:16.878Z,55.37
2018-04-14T11:53:23.147Z,55.73
2018-04-14T11:54:29.512Z,55.33
2018-04-14T11:55:35.802Z,55.74
2018-04-14T11:56:42.114Z,56.15
2018-04-14T11:57:48.382Z,56.90
2018-04-14T11:58:54.739Z,57.00
2018-04-14T12:00:01.041Z,56.62
2018-04-14T12:01:07.363Z,56.54
2018-04-14T12:02:13.643Z,58.51
2018-04-14T12:03:19.956Z,56.59
2018-04-14T12:04:26.352Z,54.77
2018-04-14T12:05:33.336Z,53.72
2018-04-14T12:06:41.583Z,53.83
2018-04-14T12:07:48.286Z,53.95
2018-04-14T12:08:54.461Z,54.22
2018-04-14T12:10:00.829Z,54.87
2018-04-14T12:11:07.351Z,54.95
2018-04-14T12:12:13.729Z,55.50
2018-04-14T12:13:20.038Z,56.04
2018-04-14T12:14:26.998Z,55.90
2018-04-14T12:15:33.921Z,55.84
2018-04-14T12:16:40.211Z,54.78
2018-04-14T12:17:46.523Z,55.56
2018-04-14T12:18:53.684Z,55.11
2018-04-14T12:20:00.170Z,54.59
2018-04-14T12:21:06.514Z,54.43
2018-04-14T12:22:15.330Z,55.26
2018-04-14T12:23:21.507Z,54.19
2018-04-14T12:24:27.768Z,55.54
2018-04-14T12:25:35.135Z,55.12
2018-04-14T12:26:42.882Z,54.11
2018-04-14T12:27:49.151Z,54.76
2018-04-14T12:28:55.361Z,54.08
2018-04-14T12:30:01.705Z,54.54
2018-04-14T12:31:07.972Z,53.20
2018-04-14T12:32:14.179Z,53.66
2018-04-14T12:33:20.687Z,54.06
2018-04-14T12:34:26.910Z,52.63
2018-04-14T12:35:33.250Z,53.65
2018-04-14T12:36:39.309Z,52.97
2018-04-14T12:37:45.539Z,53.38
2018-04-14T12:38:51.878Z,53.42
2018-04-14T12:39:57.883Z,52.48
2018-04-14T12:41:04.288Z,52.51
2018-04-14T12:42:10.227Z,52.84
2018-04-14T12:43:16.501Z,53.15
2018-04-14T12:44:22.706Z,53.40
2018-04-14T12:45:29.149Z,54.34
2018-04-14T12:46:35.456Z,54.52
2018-04-14T12:47:41.763Z,53.63
2018-04-14T12:48:48.042Z,54.43
2018-04-14T12:49:54.839Z,53.21
2018-04-14T12:51:01.115Z,53.79
2018-04-14T12:52:07.203Z,55.04
2018-04-14T12:53:13.599Z,55.28
2018-04-14T12:54:19.774Z,55.21
2018-04-14T12:55:26.072Z,55.08
2018-04-14T12:56:32.375Z,55.78
2018-04-14T12:57:40.860Z,55.73
2018-04-14T12:58:47.019Z,55.26
2018-04-14T12:59:53.324Z,55.01
2018-04-14T13:00:59.692Z,54.68
2018-04-14T13:02:05.614Z,53.85
2018-04-14T13:03:11.839Z,55.36
2018-04-14T13:04:18.067Z,54.88
2018-04-14T13:05:24.391Z,53.88
2018-04-14T13:06:30.666Z,53.48
2018-04-14T13:07:37.006Z,53.36
2018-04-14T13:08:43.299Z,54.44
2018-04-14T13:09:49.511Z,53.38
2018-04-14T13:10:55.844Z,52.63
2018-04-14T13:12:02.132Z,52.98
2018-04-14T13:13:10.995Z,51.92
2018-04-14T13:14:18.489Z,51.30
2018-04-14T13:15:24.745Z,51.26
2018-04-14T13:16:30.975Z,52.36
2018-04-14T13:17:37.194Z,52.42
2018-04-14T13:18:43.500Z,52.55
2018-04-14T13:19:49.802Z,52.88
2018-04-14T13:20:56.142Z,52.80
2018-04-14T13:22:02.493Z,52.56
2018-04-14T13:23:09.254Z,51.47
2018-04-14T13:24:15.387Z,51.52
2018-04-14T13:25:21.654Z,52.29
2018-04-14T13:26:28.103Z,52.28
2018-04-14T13:27:34.379Z,52.21
2018-04-14T13:28:47.115Z,51.40
2018-04-14T13:29:54.243Z,50.11
2018-04-14T13:31:00.116Z,51.23
2018-04-14T13:32:07.074Z,51.67
2018-04-14T13:33:13.014Z,52.51
2018-04-14T13:34:18.970Z,51.10
2018-04-14T13:35:25.440Z,51.83
2018-04-14T13:36:31.419Z,51.20
2018-04-14T13:37:37.685Z,52.52
2018-04-14T13:38:48.300Z,52.09
2018-04-14T13:39:54.754Z,51.57
2018-04-14T13:41:00.964Z,50.86
2018-04-14T13:42:07.218Z,51.04
2018-04-14T13:43:13.510Z,50.59
2018-04-14T13:44:21.088Z,50.51
2018-04-14T13:45:29.400Z,52.26
2018-04-14T13:46:35.380Z,50.27
2018-04-14T13:47:41.634Z,50.55
2018-04-14T13:48:47.966Z,49.61
2018-04-14T13:49:54.244Z,49.29
2018-04-14T13:51:00.484Z,51.87
2018-04-14T13:52:06.827Z,48.93
2018-04-14T13:53:13.078Z,48.25
2018-04-14T13:54:19.405Z,49.96
2018-04-14T13:55:25.685Z,50.02
2018-04-14T13:56:31.895Z,49.70
2018-04-14T13:57:38.159Z,50.03
2018-04-14T13:58:44.447Z,49.99
2018-04-14T13:59:50.771Z,50.60
2018-04-14T14:00:57.603Z,49.68
2018-04-14T14:02:04.504Z,49.35
2018-04-14T14:03:11.373Z,50.13
2018-04-14T14:04:17.653Z,50.18
2018-04-14T14:05:24.077Z,51.94
2018-04-14T14:06:30.360Z,49.52
2018-04-14T14:07:36.673Z,49.28
2018-04-14T14:08:42.900Z,50.52
2018-04-14T14:09:48.826Z,49.64
2018-04-14T14:10:55.101Z,50.31
2018-04-14T14:12:01.418Z,49.44
2018-04-14T14:13:07.838Z,50.20
2018-04-14T14:14:13.789Z,49.76
2018-04-14T14:15:20.030Z,49.74
2018-04-14T14:16:26.251Z,48.98
2018-04-14T14:17:32.335Z,48.48
2018-04-14T14:18:38.599Z,49.20
2018-04-14T14:19:44.883Z,48.34
2018-04-14T14:20:51.587Z,47.13
2018-04-14T14:21:57.785Z,47.94
2018-04-14T14:23:04.000Z,48.15
2018-04-14T14:24:10.014Z,49.11
2018-04-14T14:25:16.242Z,49.02
2018-04-14T14:26:22.615Z,48.35
2018-04-14T14:27:28.859Z,47.57
2018-04-14T14:28:35.071Z,49.40
2018-04-14T14:29:41.379Z,49.14
2018-04-14T14:30:47.637Z,49.40
2018-04-14T14:31:53.891Z,49.05
2018-04-14T14:33:00.250Z,48.67
2018-04-14T14:34:06.560Z,48.57
2018-04-14T14:35:16.944Z,48.11
2018-04-14T14:36:25.306Z,48.61